首页
METAR-TAF:

METAR-TAF

机场 :

门兴格拉德巴赫, 德国

纬度: 51-13-49N, 经度: 006-30-16E, 海拔: 38米

当前天气观测

该预报发布于34分钟前的01:20 UTC
风速4节,风向东南,在之间变化
温度 0°C
湿度 100%
气压 1012 hPa
能見度: 9000

METAR: EDLN 170120Z AUTO 13004KT 100V170 9000 // NCD 00/M00 Q1012

时间: 02:54 (01:54 UTC)

预报

该预报发布于8小时和54分钟前的17:00 UTC
预报有效从16日的 18点(UTC)到 17日的 03点(UTC)
风速3节,风向多变
能见度10公里或以上
1500米以下无云,无积雨云

TAF: EDLN 161700Z 1618/1703 VRB03KT CAVOK

超过4000个机场的气象观测和天气预报(METAR&TAF报告)。

可查询的气象台以黄色和红色小点在地图上表示。

将鼠标移到小点上方,可查看气象台名称。

然后点击查看天气观测和预报。

如需切换地图:点击带黑十字的绿色按钮放大地图;点击带横线的绿色按钮缩小地图;或者点击绿色箭头查看邻近地区的地图。


METAR-TAF: